Lugano Airport LSZA

Flugplatz Daten

Name: Lugano Airport

Ident: LSZA

Lat: 46,00429916

Long: 8,910579681

Platzhöhe: 915 ft

IataCode: LUG

City: Lugano

Metar

2021/08/02 09:20
LSZA 020920Z VRB03KT 9999 FEW090 SCT110 22/11 Q1014 NOSIG

Taf

Gewünschte Webcam nicht vorhanden? Dann fügen Sie eine hinzu. Sie wird dann so schnell wie möglich freigeschaltet
Url: Title: